»·PEaware :: N232Z KSNA-KMRY

N232Z :: KSNA-KMRY

FLIGHT INFORMATION

Flight Status: Arrived
Operator: Privately registered:
United States
More flights under this callsign
Pilot: Merv A. (1555)
Aircraft: Unknown
(LEG2)
More flights by this aircraft type
Origin: KSNA John Wayne-Orange Co
United States
Destination: KMRY Monterey Peninsula
United States
More flights between these airports :: More routes between these airports
Route: + / BSR PEBBS1
File this flight plan on PilotEdge
Remarks:
Altitude:
(Current/Filed)
10,000ft
Speed:
(Current/Filed)
200kts
Departed: 11-Jan-19 04:57 PM
Arrived: 11-Jan-19 06:29 PM
Distance/Time
Traveled:
262nm/1:32
Distance/Time
To Go:
Arrived

Flight Plot

Page will automatically refresh every two minutes.

Flight plan parsing failed; only flown route is shown


Map Options




Map Legend


Flown Route
Filed Route
Departure Airport
Arrival Airport
Navaid (VOR, NDB)
Fix

Horizontal Profiles

Position Reports

Time Latitude Longitude Heading Altitude Ground
Speed
11-Jan-19 16:37 33.667692 -117.875633 28 59ft 0kts
11-Jan-19 16:38 33.667692 -117.875633 28 59ft 0kts
11-Jan-19 16:39 33.667692 -117.875633 28 59ft 0kts
11-Jan-19 16:40 33.667692 -117.875633 28 59ft 0kts
11-Jan-19 16:41 33.667692 -117.875633 28 59ft 0kts
11-Jan-19 16:42 33.667692 -117.875633 28 59ft 0kts
11-Jan-19 16:43 33.667692 -117.875633 28 59ft 0kts
11-Jan-19 16:44 33.667692 -117.875633 28 59ft 0kts
11-Jan-19 16:45 33.667692 -117.875633 28 59ft 0kts
11-Jan-19 16:46 33.667692 -117.875633 28 59ft 0kts
11-Jan-19 16:47 33.667692 -117.875633 28 59ft 0kts
11-Jan-19 16:48 33.667692 -117.875633 28 59ft 0kts
11-Jan-19 16:49 33.667714 -117.875507 107 59ft 6kts
11-Jan-19 16:51 33.667684 -117.875403 105 59ft 2kts
11-Jan-19 16:52 33.670836 -117.873404 27 59ft 16kts
11-Jan-19 16:53 33.675060 -117.870733 28 59ft 17kts
11-Jan-19 16:54 33.679789 -117.867964 18 59ft 19kts
11-Jan-19 16:55 33.681197 -117.866398 107 59ft 0kts
11-Jan-19 16:56 33.681197 -117.866398 107 59ft 0kts
11-Jan-19 16:57 33.670148 -117.872750 209 259ft 117kts
11-Jan-19 16:58 33.645251 -117.907446 233 1420ft 149kts
11-Jan-19 16:59 33.621085 -117.950029 233 1997ft 165kts
11-Jan-19 17:00 33.594694 -117.996011 233 2975ft 165kts
11-Jan-19 17:01 33.587885 -118.043932 302 4460ft 157kts
11-Jan-19 17:02 33.616733 -118.080302 317 5861ft 158kts
11-Jan-19 17:03 33.653034 -118.119275 316 6004ft 190kts
11-Jan-19 17:04 33.693459 -118.163998 316 6001ft 203kts
11-Jan-19 17:05 33.735289 -118.210560 316 5999ft 206kts
11-Jan-19 17:06 33.775395 -118.255346 316 5994ft 204kts
11-Jan-19 17:07 33.817256 -118.302162 316 6001ft 212kts
11-Jan-19 17:08 33.860861 -118.350979 316 5996ft 215kts
11-Jan-19 17:09 33.904534 -118.399918 316 5998ft 214kts
11-Jan-19 17:09 33.935715 -118.444914 292 6002ft 211kts
11-Jan-19 17:10 33.958260 -118.510321 288 6000ft 211kts
11-Jan-19 17:11 33.979342 -118.576817 289 5999ft 211kts
11-Jan-19 17:13 34.003948 -118.654003 289 6003ft 211kts
11-Jan-19 17:13 34.021536 -118.709283 289 6000ft 212kts
11-Jan-19 17:14 34.043016 -118.775489 287 5990ft 213kts
11-Jan-19 17:15 34.061193 -118.843337 280 5995ft 212kts
11-Jan-19 17:16 34.077904 -118.910956 284 5991ft 213kts
11-Jan-19 17:17 34.095806 -118.977893 283 6407ft 205kts
11-Jan-19 17:18 34.113431 -119.043345 284 7317ft 207kts
11-Jan-19 17:19 34.147418 -119.101621 307 8023ft 220kts
11-Jan-19 17:20 34.184255 -119.159047 299 8921ft 210kts
11-Jan-19 17:21 34.214009 -119.220190 295 9632ft 211kts
11-Jan-19 17:22 34.248697 -119.279735 298 9988ft 223kts
11-Jan-19 17:23 34.285091 -119.342713 299 9990ft 232kts
11-Jan-19 17:24 34.321397 -119.405508 299 9987ft 224kts
11-Jan-19 17:25 34.358053 -119.466006 315 9985ft 227kts
11-Jan-19 17:26 34.392182 -119.526796 289 9985ft 218kts
11-Jan-19 17:27 34.419877 -119.592303 294 9983ft 219kts
11-Jan-19 17:28 34.450065 -119.656481 291 9978ft 218kts
11-Jan-19 17:29 34.482632 -119.719233 295 9978ft 220kts
11-Jan-19 17:30 34.522880 -119.775267 322 9981ft 228kts
11-Jan-19 17:31 34.575539 -119.818234 327 9998ft 229kts
11-Jan-19 17:32 34.631177 -119.856033 327 9994ft 229kts
11-Jan-19 17:33 34.686440 -119.894880 326 9985ft 229kts
11-Jan-19 17:34 34.741751 -119.933831 326 9998ft 228kts
11-Jan-19 17:35 34.796769 -119.972568 326 9995ft 228kts
11-Jan-19 17:36 34.851450 -120.011034 326 9992ft 229kts
11-Jan-19 17:37 34.906904 -120.050147 326 9986ft 230kts
11-Jan-19 17:38 34.962453 -120.089540 326 9971ft 231kts
11-Jan-19 17:39 35.017572 -120.130179 323 9966ft 231kts
11-Jan-19 17:40 35.071756 -120.172357 323 9964ft 231kts
11-Jan-19 17:41 35.126640 -120.213268 325 9961ft 231kts
11-Jan-19 17:42 35.181897 -120.253811 325 9958ft 231kts
11-Jan-19 17:43 35.236762 -120.294499 324 9958ft 231kts
11-Jan-19 17:44 35.291444 -120.335983 324 9948ft 231kts
11-Jan-19 17:45 35.346283 -120.377690 324 9947ft 232kts
11-Jan-19 17:46 35.400831 -120.419233 324 9944ft 232kts
11-Jan-19 17:47 35.455846 -120.461215 324 9942ft 232kts
11-Jan-19 17:48 35.510399 -120.502903 324 9997ft 230kts
11-Jan-19 17:49 35.565013 -120.544710 324 9994ft 232kts
11-Jan-19 17:50 35.619513 -120.586481 324 9991ft 233kts
11-Jan-19 17:51 35.674719 -120.628788 323 9989ft 232kts
11-Jan-19 17:52 35.725576 -120.676707 320 9989ft 232kts
11-Jan-19 17:53 35.777448 -120.724206 315 9989ft 231kts
11-Jan-19 17:54 35.828709 -120.772008 318 9989ft 232kts
11-Jan-19 17:55 35.880563 -120.820208 318 9989ft 233kts
11-Jan-19 17:56 35.932157 -120.868305 318 9987ft 233kts
11-Jan-19 17:57 35.984092 -120.916761 318 9987ft 234kts
11-Jan-19 17:58 36.033332 -120.969080 312 9986ft 234kts
11-Jan-19 17:59 36.081744 -121.022909 313 9985ft 235kts
11-Jan-19 18:00 36.129879 -121.077232 296 9979ft 229kts
11-Jan-19 18:01 36.153840 -121.148170 281 9980ft 222kts
11-Jan-19 18:02 36.167620 -121.220268 264 9979ft 213kts
11-Jan-19 18:03 36.175692 -121.293567 268 9976ft 216kts
11-Jan-19 18:04 36.182794 -121.366982 255 9973ft 207kts
11-Jan-19 18:05 36.181605 -121.439147 258 9970ft 210kts
11-Jan-19 18:06 36.181368 -121.511398 258 9967ft 210kts
11-Jan-19 18:07 36.181323 -121.583479 258 9967ft 210kts
11-Jan-19 18:08 36.196995 -121.652555 314 9981ft 241kts
11-Jan-19 18:09 36.251035 -121.703255 323 9965ft 246kts
11-Jan-19 18:10 36.306746 -121.751169 319 9964ft 238kts
11-Jan-19 18:11 36.360286 -121.797714 319 9999ft 233kts
11-Jan-19 18:12 36.412577 -121.843142 319 9655ft 237kts
11-Jan-19 18:13 36.466790 -121.890075 319 8555ft 227kts
11-Jan-19 18:14 36.516121 -121.933090 318 7441ft 209kts
11-Jan-19 18:15 36.572406 -121.946181 359 6355ft 200kts
11-Jan-19 18:16 36.627223 -121.945101 1 5246ft 195kts
11-Jan-19 18:17 36.676967 -121.944994 1 5030ft 160kts
11-Jan-19 18:18 36.722913 -121.945039 1 5005ft 166kts
11-Jan-19 18:19 36.759886 -121.959563 250 4999ft 124kts
11-Jan-19 18:20 36.736469 -121.981311 201 4981ft 110kts
11-Jan-19 18:21 36.708772 -121.986495 142 4207ft 96kts
11-Jan-19 18:22 36.694946 -121.957689 143 3514ft 94kts
11-Jan-19 18:23 36.671912 -121.940752 155 3142ft 92kts
11-Jan-19 18:24 36.647403 -121.931614 168 2752ft 92kts
11-Jan-19 18:25 36.623398 -121.922991 148 2227ft 95kts
11-Jan-19 18:26 36.606373 -121.899557 121 1286ft 95kts
11-Jan-19 18:27 36.596433 -121.871906 116 638ft 85kts
11-Jan-19 18:28 36.589329 -121.850548 0 208ft 7kts
11-Jan-19 18:29 36.590571 -121.850219 74 208ft 12kts
11-Jan-19 18:30 36.591528 -121.846681 315 208ft 0kts
11-Jan-19 18:31 36.591528 -121.846681 315 208ft 0kts
11-Jan-19 18:32 36.591528 -121.846681 315 208ft 0kts
11-Jan-19 18:33 36.591528 -121.846681 315 208ft 0kts

Navigation Log

Ident Type
Flight plan parsing failed, navigation log unavailable